Time;durP1;ratioP1;P1;durP2;ratioP2;P2;SDS_P1;SDS_P2;PMS_P1;PMS_P2;Temp;Humidity;BMP_temperature;BMP_pressure;BME280_temperature;BME280_humidity;BME280_pressure;Samples;Min_cycle;Max_cycle;Signal;HPM_P1;HPM_P2
2022/07/19 00:00:59;;;;;;;;;;;10.90;99.90;;;;;;5015660;28;19909;-71
2022/07/19 00:03:26;;;;;;;;;;;10.90;99.90;;;;;;5015740;28;19909;-70
2022/07/19 00:05:53;;;;;;;;;;;10.90;99.90;;;;;;5015650;28;19921;-71
2022/07/19 00:08:20;;;;;;;;;;;10.80;99.90;;;;;;5015203;28;20264;-70
2022/07/19 00:10:46;;;;;;;;;;;10.80;99.90;;;;;;5015629;28;19968;-70
2022/07/19 00:13:13;;;;;;;;;;;10.80;99.90;;;;;;5015343;28;19909;-70
2022/07/19 00:15:40;;;;;;;;;;;10.90;99.90;;;;;;5015575;28;19913;-71
2022/07/19 00:18:06;;;;;;;;;;;11.00;99.90;;;;;;5015569;28;19918;-70
2022/07/19 00:20:33;;;;;;;;;;;11.10;99.90;;;;;;5015627;28;19964;-70
2022/07/19 00:23:00;;;;;;;;;;;11.10;99.90;;;;;;5015287;28;20387;-70
2022/07/19 00:25:26;;;;;;;;;;;11.20;99.90;;;;;;5015501;28;19910;-70
2022/07/19 00:27:53;;;;;;;;;;;11.30;99.90;;;;;;5015374;28;19916;-72
2022/07/19 00:30:20;;;;;;;;;;;11.40;99.90;;;;;;5015136;28;19956;-71
2022/07/19 00:32:46;;;;;;;;;;;11.30;99.90;;;;;;5015307;28;19916;-72
2022/07/19 00:35:13;;;;;;;;;;;11.40;99.90;;;;;;5013647;28;19911;-71
2022/07/19 00:37:40;;;;;;;;;;;11.40;99.90;;;;;;5014228;28;19932;-71
2022/07/19 00:40:08;;;;;;;;;;;11.50;99.90;;;;;;5015135;28;20004;-71
2022/07/19 00:42:34;;;;;;;;;;;11.70;99.90;;;;;;5015203;28;19914;-70
2022/07/19 00:45:01;;;;;;;;;;;11.70;99.90;;;;;;5013323;28;19978;-72
2022/07/19 00:47:28;;;;;;;;;;;11.70;99.90;;;;;;5015092;28;19910;-71
2022/07/19 00:49:54;;;;;;;;;;;11.60;99.90;;;;;;5015047;28;20360;-72
2022/07/19 00:52:22;;;;;;;;;;;11.50;99.90;;;;;;5014941;28;19963;-72
2022/07/19 00:54:49;;;;;;;;;;;11.40;99.90;;;;;;5015029;28;19916;-72
2022/07/19 00:57:16;;;;;;;;;;;11.30;99.90;;;;;;5014566;28;19917;-72
2022/07/19 00:59:43;;;;;;;;;;;11.30;99.90;;;;;;5014628;28;19917;-72
2022/07/19 01:02:12;;;;;;;;;;;11.20;99.90;;;;;;5014719;28;19909;-72
2022/07/19 01:04:39;;;;;;;;;;;11.00;99.90;;;;;;5014610;28;19913;-72
2022/07/19 01:07:07;;;;;;;;;;;10.80;99.90;;;;;;5014617;28;20027;-72
2022/07/19 01:09:35;;;;;;;;;;;10.80;99.90;;;;;;5014742;28;19916;-72
2022/07/19 01:12:02;;;;;;;;;;;10.70;99.90;;;;;;5014558;28;19936;-72
2022/07/19 01:14:29;;;;;;;;;;;10.70;99.90;;;;;;5013220;28;20418;-72
2022/07/19 01:16:55;;;;;;;;;;;10.70;99.90;;;;;;5014111;28;19957;-72
2022/07/19 01:19:22;;;;;;;;;;;10.70;99.90;;;;;;5014526;28;19910;-72
2022/07/19 01:21:49;;;;;;;;;;;10.90;99.90;;;;;;5014319;28;20283;-72
2022/07/19 01:24:15;;;;;;;;;;;11.00;99.90;;;;;;5014494;28;19909;-70
2022/07/19 01:26:42;;;;;;;;;;;11.20;99.90;;;;;;5014393;28;20303;-72
2022/07/19 01:29:14;;;;;;;;;;;11.20;99.90;;;;;;5014134;28;19910;-71
2022/07/19 01:31:40;;;;;;;;;;;11.00;99.90;;;;;;5029222;28;20307;-70
2022/07/19 01:34:07;;;;;;;;;;;10.80;99.90;;;;;;5014347;28;19916;-71
2022/07/19 01:36:34;;;;;;;;;;;10.70;99.90;;;;;;5014249;28;20334;-71
2022/07/19 01:39:01;;;;;;;;;;;10.60;99.90;;;;;;5014144;28;19976;-71
2022/07/19 01:41:28;;;;;;;;;;;10.50;99.90;;;;;;5014119;28;19910;-71
2022/07/19 01:43:54;;;;;;;;;;;10.60;99.90;;;;;;5014174;28;20014;-71
2022/07/19 01:46:21;;;;;;;;;;;10.60;99.90;;;;;;5012731;28;20000;-71
2022/07/19 01:48:48;;;;;;;;;;;10.60;99.90;;;;;;5014101;28;20249;-72
2022/07/19 01:51:14;;;;;;;;;;;10.70;99.90;;;;;;5013899;28;19909;-72
2022/07/19 01:53:41;;;;;;;;;;;10.80;99.90;;;;;;5013989;28;19988;-71
2022/07/19 01:56:08;;;;;;;;;;;10.90;99.90;;;;;;5013846;28;19940;-72
2022/07/19 01:58:34;;;;;;;;;;;10.90;99.90;;;;;;5013812;28;19924;-71
2022/07/19 02:01:02;;;;;;;;;;;11.00;99.90;;;;;;5013660;28;19960;-71
2022/07/19 02:03:28;;;;;;;;;;;11.20;99.90;;;;;;5013780;28;20028;-72
2022/07/19 02:05:55;;;;;;;;;;;11.40;99.90;;;;;;5013559;28;19921;-72
2022/07/19 02:08:22;;;;;;;;;;;11.50;99.90;;;;;;5013737;28;20316;-72
2022/07/19 02:10:49;;;;;;;;;;;11.60;99.90;;;;;;5013722;28;19917;-71
2022/07/19 02:13:15;;;;;;;;;;;11.80;99.90;;;;;;5013444;28;19913;-72
2022/07/19 02:15:42;;;;;;;;;;;11.90;99.90;;;;;;5013638;28;20390;-72
2022/07/19 02:18:09;;;;;;;;;;;11.90;99.90;;;;;;5013650;28;19963;-71
2022/07/19 02:20:36;;;;;;;;;;;11.90;99.90;;;;;;5012449;28;20429;-71
2022/07/19 02:23:02;;;;;;;;;;;11.80;99.90;;;;;;5012583;28;19914;-72
2022/07/19 02:25:29;;;;;;;;;;;11.90;99.90;;;;;;5013036;28;19909;-72
2022/07/19 02:27:56;;;;;;;;;;;11.90;99.90;;;;;;5013607;28;20370;-72
2022/07/19 02:30:23;;;;;;;;;;;12.00;99.90;;;;;;5015071;28;19909;-72
2022/07/19 02:32:49;;;;;;;;;;;12.00;99.90;;;;;;5017629;28;20425;-72
2022/07/19 02:35:18;;;;;;;;;;;12.00;99.90;;;;;;5017543;28;19913;-71
2022/07/19 02:37:45;;;;;;;;;;;12.00;99.90;;;;;;5017432;28;20351;-71
2022/07/19 02:40:12;;;;;;;;;;;11.90;99.90;;;;;;5017554;28;19909;-71
2022/07/19 02:42:38;;;;;;;;;;;11.90;99.90;;;;;;5017583;28;19917;-71
2022/07/19 02:45:05;;;;;;;;;;;11.70;99.90;;;;;;5017155;28;19909;-71
2022/07/19 02:47:32;;;;;;;;;;;11.70;99.90;;;;;;5017316;28;19910;-71
2022/07/19 02:49:59;;;;;;;;;;;11.70;99.90;;;;;;5017145;28;20466;-72
2022/07/19 02:52:25;;;;;;;;;;;11.50;99.90;;;;;;5017533;28;19909;-71
2022/07/19 02:54:52;;;;;;;;;;;11.30;99.90;;;;;;5016925;28;19917;-72
2022/07/19 02:57:19;;;;;;;;;;;11.10;99.90;;;;;;5017170;28;20291;-72
2022/07/19 02:59:46;;;;;;;;;;;11.00;99.90;;;;;;5016997;28;20379;-71
2022/07/19 03:02:12;;;;;;;;;;;10.90;99.90;;;;;;5016961;28;19909;-72
2022/07/19 03:04:39;;;;;;;;;;;10.70;99.90;;;;;;5016780;28;20350;-72
2022/07/19 03:07:06;;;;;;;;;;;10.70;99.90;;;;;;5015457;28;19956;-71
2022/07/19 03:09:33;;;;;;;;;;;10.70;99.90;;;;;;5016996;28;19913;-72
2022/07/19 03:11:59;;;;;;;;;;;10.80;99.90;;;;;;5016948;28;19913;-72
2022/07/19 03:14:27;;;;;;;;;;;10.80;99.90;;;;;;5016557;28;20368;-72
2022/07/19 03:16:54;;;;;;;;;;;10.90;99.90;;;;;;5016448;28;19957;-72
2022/07/19 03:19:21;;;;;;;;;;;11.00;99.90;;;;;;5016632;28;20383;-72
2022/07/19 03:21:48;;;;;;;;;;;11.00;99.90;;;;;;5016692;28;19910;-72
2022/07/19 03:24:15;;;;;;;;;;;10.90;99.90;;;;;;5016641;28;19969;-72
2022/07/19 03:26:42;;;;;;;;;;;10.90;99.90;;;;;;5016625;28;19956;-71
2022/07/19 03:29:08;;;;;;;;;;;10.80;99.90;;;;;;5015934;28;19909;-72
2022/07/19 03:31:35;;;;;;;;;;;10.70;99.90;;;;;;5016471;28;19956;-72
2022/07/19 03:34:02;;;;;;;;;;;10.70;99.90;;;;;;5016376;28;20416;-72
2022/07/19 03:36:28;;;;;;;;;;;10.70;99.90;;;;;;5016160;28;20008;-72
2022/07/19 03:38:56;;;;;;;;;;;10.70;99.90;;;;;;5016035;28;20265;-72
2022/07/19 03:41:23;;;;;;;;;;;10.70;99.90;;;;;;5015247;28;20356;-72
2022/07/19 03:43:49;;;;;;;;;;;10.70;99.90;;;;;;5016060;28;19936;-72
2022/07/19 03:46:16;;;;;;;;;;;10.60;99.90;;;;;;5016300;28;20343;-71
2022/07/19 03:48:43;;;;;;;;;;;10.60;99.90;;;;;;5016078;28;19913;-72
2022/07/19 03:51:11;;;;;;;;;;;10.60;99.90;;;;;;5015764;28;20012;-72
2022/07/19 03:53:37;;;;;;;;;;;10.60;99.90;;;;;;5016112;28;19921;-73
2022/07/19 03:56:04;;;;;;;;;;;10.60;99.90;;;;;;5016145;28;19909;-71
2022/07/19 03:58:31;;;;;;;;;;;10.60;99.90;;;;;;5016017;28;19917;-72
2022/07/19 04:00:58;;;;;;;;;;;10.70;99.90;;;;;;5015613;28;19917;-71
2022/07/19 04:03:24;;;;;;;;;;;10.70;99.90;;;;;;5015956;28;19909;-72
2022/07/19 04:05:51;;;;;;;;;;;10.60;99.90;;;;;;5014407;28;20260;-72
2022/07/19 04:08:18;;;;;;;;;;;10.60;99.90;;;;;;5015831;28;19910;-72
2022/07/19 04:10:45;;;;;;;;;;;10.60;99.90;;;;;;5015807;28;19914;-72
2022/07/19 04:13:11;;;;;;;;;;;10.60;99.90;;;;;;5015432;28;19960;-72
2022/07/19 04:15:38;;;;;;;;;;;10.60;99.90;;;;;;5015441;28;20360;-72
2022/07/19 04:18:05;;;;;;;;;;;10.70;99.90;;;;;;5015521;28;19972;-72
2022/07/19 04:20:31;;;;;;;;;;;10.60;99.90;;;;;;5015408;28;20330;-73
2022/07/19 04:22:58;;;;;;;;;;;10.70;99.90;;;;;;5015310;28;19916;-72
2022/07/19 04:25:25;;;;;;;;;;;10.60;99.90;;;;;;5015451;28;19909;-72
2022/07/19 04:27:52;;;;;;;;;;;10.60;99.90;;;;;;5015394;28;19917;-72
2022/07/19 04:30:19;;;;;;;;;;;10.70;99.90;;;;;;5015109;28;20008;-72
2022/07/19 04:32:45;;;;;;;;;;;10.70;99.90;;;;;;5015209;28;19915;-72
2022/07/19 04:35:12;;;;;;;;;;;10.80;99.90;;;;;;5015054;28;19956;-72
2022/07/19 04:37:41;;;;;;;;;;;10.80;99.90;;;;;;5015136;28;20395;-72
2022/07/19 04:40:08;;;;;;;;;;;10.90;99.90;;;;;;5030241;28;19910;-73
2022/07/19 04:42:35;;;;;;;;;;;10.90;99.90;;;;;;5015026;28;20004;-73
2022/07/19 04:45:01;;;;;;;;;;;10.80;99.90;;;;;;5014738;28;20340;-72
2022/07/19 04:47:28;;;;;;;;;;;10.70;99.90;;;;;;5015212;28;19917;-72
2022/07/19 04:49:55;;;;;;;;;;;10.70;99.90;;;;;;5015069;28;19909;-72
2022/07/19 04:52:21;;;;;;;;;;;10.50;99.90;;;;;;5014915;28;19952;-72
2022/07/19 04:54:48;;;;;;;;;;;10.50;99.90;;;;;;5015172;28;20008;-73
2022/07/19 04:57:15;;;;;;;;;;;10.50;99.90;;;;;;5016438;28;19913;-72
2022/07/19 04:59:42;;;;;;;;;;;10.40;99.90;;;;;;5015249;28;19956;-73
2022/07/19 05:02:08;;;;;;;;;;;10.40;99.90;;;;;;5015058;28;19909;-73
2022/07/19 05:04:35;;;;;;;;;;;10.50;99.90;;;;;;5014614;28;20303;-73
2022/07/19 05:07:02;;;;;;;;;;;10.40;99.90;;;;;;5014692;28;19917;-73
2022/07/19 05:09:29;;;;;;;;;;;10.50;99.90;;;;;;5014775;28;20009;-74
2022/07/19 05:11:56;;;;;;;;;;;10.40;99.90;;;;;;5014528;28;20342;-73
2022/07/19 05:14:23;;;;;;;;;;;10.50;99.90;;;;;;5014462;28;19964;-73
2022/07/19 05:16:50;;;;;;;;;;;10.40;99.90;;;;;;5014450;28;19924;-73
2022/07/19 05:19:17;;;;;;;;;;;10.50;99.90;;;;;;5014412;28;20008;-74
2022/07/19 05:21:44;;;;;;;;;;;10.50;99.90;;;;;;5014096;28;19909;-73
2022/07/19 05:24:10;;;;;;;;;;;10.60;99.90;;;;;;5014349;28;19909;-74
2022/07/19 05:26:37;;;;;;;;;;;10.60;99.90;;;;;;5014267;28;19917;-73
2022/07/19 05:29:04;;;;;;;;;;;10.50;99.90;;;;;;5014047;28;19910;-74
2022/07/19 05:31:30;;;;;;;;;;;10.50;99.90;;;;;;5012877;28;19909;-73
2022/07/19 05:33:57;;;;;;;;;;;10.60;99.90;;;;;;5014206;28;19916;-73
2022/07/19 05:36:24;;;;;;;;;;;10.60;99.90;;;;;;5013984;28;19957;-73
2022/07/19 05:38:52;;;;;;;;;;;10.60;99.90;;;;;;5014105;28;20388;-73
2022/07/19 05:41:21;;;;;;;;;;;10.70;99.90;;;;;;5014197;28;19936;-73
2022/07/19 05:43:49;;;;;;;;;;;10.70;99.90;;;;;;5014063;28;20275;-73
2022/07/19 05:46:16;;;;;;;;;;;10.70;99.90;;;;;;5013947;28;19910;-73
2022/07/19 05:48:43;;;;;;;;;;;10.70;99.90;;;;;;5014014;28;19910;-73
2022/07/19 05:51:10;;;;;;;;;;;10.80;99.90;;;;;;5013910;28;20359;-73
2022/07/19 05:53:37;;;;;;;;;;;10.90;99.90;;;;;;5013842;28;19909;-73
2022/07/19 05:56:05;;;;;;;;;;;10.70;99.90;;;;;;5012732;28;19909;-74
2022/07/19 05:58:32;;;;;;;;;;;10.80;99.90;;;;;;5013580;28;19957;-74
2022/07/19 06:03:43;;;;;;;;;;;10.90;99.90;;;;;;5013864;28;19955;-73
2022/07/19 06:06:10;;;;;;;;;;;10.80;99.90;;;;;;5012776;28;19929;-73
2022/07/19 06:08:37;;;;;;;;;;;10.70;99.90;;;;;;5013595;28;20016;-73
2022/07/19 06:11:03;;;;;;;;;;;10.70;99.90;;;;;;5013492;28;20004;-73
2022/07/19 06:13:30;;;;;;;;;;;10.70;99.90;;;;;;5013476;28;20431;-73
2022/07/19 06:15:57;;;;;;;;;;;10.80;99.90;;;;;;5013511;28;19932;-74
2022/07/19 06:18:23;;;;;;;;;;;10.80;99.90;;;;;;5013529;28;19917;-73
2022/07/19 06:20:50;;;;;;;;;;;10.80;99.90;;;;;;5013440;28;20368;-74
2022/07/19 06:23:17;;;;;;;;;;;10.80;99.90;;;;;;5013645;28;20008;-74
2022/07/19 06:25:43;;;;;;;;;;;10.90;99.90;;;;;;5013548;28;19916;-73
2022/07/19 06:28:10;;;;;;;;;;;10.90;99.90;;;;;;5013476;28;20271;-73
2022/07/19 06:30:37;;;;;;;;;;;10.90;99.90;;;;;;5013584;28;19956;-73
2022/07/19 06:33:03;;;;;;;;;;;10.90;99.90;;;;;;5013200;28;20319;-74
2022/07/19 06:35:30;;;;;;;;;;;10.90;99.90;;;;;;5013404;28;19909;-73
2022/07/19 06:37:57;;;;;;;;;;;10.90;99.90;;;;;;5013326;28;19917;-74
2022/07/19 06:40:23;;;;;;;;;;;10.90;99.90;;;;;;5013460;28;19910;-73
2022/07/19 06:42:50;;;;;;;;;;;10.90;99.90;;;;;;5013385;28;20315;-72
2022/07/19 06:45:17;;;;;;;;;;;10.90;99.90;;;;;;5013363;28;19916;-72
2022/07/19 06:47:44;;;;;;;;;;;10.80;99.90;;;;;;5013263;28;19909;-71
2022/07/19 06:50:11;;;;;;;;;;;10.70;99.90;;;;;;5013435;28;20350;-71
2022/07/19 06:52:38;;;;;;;;;;;10.60;99.90;;;;;;5013073;28;19910;-71
2022/07/19 06:55:05;;;;;;;;;;;10.60;99.90;;;;;;5013118;28;20000;-72
2022/07/19 06:57:31;;;;;;;;;;;10.60;99.90;;;;;;5013651;28;19925;-73
2022/07/19 06:59:58;;;;;;;;;;;10.60;99.90;;;;;;5013099;28;19929;-73
2022/07/19 07:02:25;;;;;;;;;;;10.50;99.90;;;;;;5013058;28;20364;-73
2022/07/19 07:04:51;;;;;;;;;;;10.60;99.90;;;;;;5012435;28;19917;-72
2022/07/19 07:07:18;;;;;;;;;;;10.70;99.90;;;;;;5012807;28;19917;-73
2022/07/19 07:09:45;;;;;;;;;;;10.70;99.90;;;;;;5013088;28;19968;-73
2022/07/19 07:12:11;;;;;;;;;;;10.70;99.90;;;;;;5012855;28;19916;-73
2022/07/19 07:14:38;;;;;;;;;;;10.80;99.90;;;;;;5012787;28;20272;-73
2022/07/19 07:17:05;;;;;;;;;;;10.70;99.90;;;;;;5015341;28;19922;-74
2022/07/19 07:19:32;;;;;;;;;;;10.70;99.90;;;;;;5016574;28;20004;-73
2022/07/19 07:22:00;;;;;;;;;;;10.70;99.90;;;;;;5016542;28;20373;-72
2022/07/19 07:24:28;;;;;;;;;;;10.80;99.90;;;;;;5016424;28;19910;-72
2022/07/19 07:26:55;;;;;;;;;;;10.70;99.90;;;;;;5016320;28;19910;-72
2022/07/19 07:29:21;;;;;;;;;;;10.70;99.90;;;;;;5016101;28;19987;-73
2022/07/19 07:31:48;;;;;;;;;;;10.70;99.90;;;;;;5016407;28;19916;-73
2022/07/19 07:34:15;;;;;;;;;;;10.60;99.90;;;;;;5016553;28;19910;-73
2022/07/19 07:36:43;;;;;;;;;;;10.70;99.90;;;;;;5016255;28;20001;-73
2022/07/19 07:39:11;;;;;;;;;;;10.70;99.90;;;;;;5016048;28;19979;-73
2022/07/19 07:41:37;;;;;;;;;;;10.70;99.90;;;;;;5016279;28;19909;-73
2022/07/19 07:44:04;;;;;;;;;;;10.60;99.90;;;;;;5016148;28;19909;-73
2022/07/19 07:46:31;;;;;;;;;;;10.70;99.90;;;;;;5016150;28;19913;-73
2022/07/19 07:48:58;;;;;;;;;;;10.70;99.90;;;;;;5015850;28;19950;-73
2022/07/19 07:51:25;;;;;;;;;;;10.60;99.90;;;;;;5016031;28;19916;-73
2022/07/19 07:53:52;;;;;;;;;;;10.60;99.90;;;;;;5016126;28;19956;-73
2022/07/19 07:56:19;;;;;;;;;;;10.60;99.90;;;;;;5015930;28;19945;-73
2022/07/19 07:58:45;;;;;;;;;;;10.50;99.90;;;;;;5014272;28;19971;-72
2022/07/19 08:01:12;;;;;;;;;;;10.60;99.90;;;;;;5015134;28;19996;-73
2022/07/19 08:03:39;;;;;;;;;;;10.60;99.90;;;;;;5015867;28;19909;-73
2022/07/19 08:06:06;;;;;;;;;;;10.50;99.90;;;;;;5015585;28;19921;-73
2022/07/19 08:08:32;;;;;;;;;;;10.50;99.90;;;;;;5015696;28;19909;-74
2022/07/19 08:10:59;;;;;;;;;;;10.50;99.90;;;;;;5015374;28;19910;-73
2022/07/19 08:13:26;;;;;;;;;;;10.40;99.90;;;;;;5015448;28;19910;-73
2022/07/19 08:15:52;;;;;;;;;;;10.40;99.90;;;;;;5014881;28;19916;-74
2022/07/19 08:18:19;;;;;;;;;;;10.40;99.90;;;;;;5015518;28;19922;-74
2022/07/19 08:20:46;;;;;;;;;;;10.40;99.90;;;;;;5015473;28;20382;-74
2022/07/19 08:23:13;;;;;;;;;;;10.50;99.90;;;;;;5015215;28;19917;-74
2022/07/19 08:25:39;;;;;;;;;;;10.50;99.90;;;;;;5015083;28;19917;-74
2022/07/19 08:28:06;;;;;;;;;;;10.50;99.90;;;;;;5014509;28;19916;-73
2022/07/19 08:30:33;;;;;;;;;;;10.50;99.90;;;;;;5014852;28;19999;-74
2022/07/19 08:33:00;;;;;;;;;;;10.50;99.90;;;;;;5015132;28;19914;-74
2022/07/19 08:35:27;;;;;;;;;;;10.50;99.90;;;;;;5015157;28;19964;-74
2022/07/19 08:37:54;;;;;;;;;;;10.40;99.90;;;;;;5014971;28;19918;-74
2022/07/19 08:40:20;;;;;;;;;;;10.40;99.90;;;;;;5015161;28;19916;-74
2022/07/19 08:42:48;;;;;;;;;;;10.40;99.90;;;;;;5015014;28;20374;-74
2022/07/19 08:45:15;;;;;;;;;;;10.40;99.90;;;;;;5014380;28;19953;-74
2022/07/19 08:47:42;;;;;;;;;;;10.30;99.90;;;;;;5015043;28;19910;-73
2022/07/19 08:50:11;;;;;;;;;;;10.30;99.90;;;;;;5015096;28;19916;-74
2022/07/19 08:52:38;;;;;;;;;;;10.40;99.90;;;;;;5014841;28;19915;-73
2022/07/19 08:55:05;;;;;;;;;;;10.30;99.90;;;;;;5014492;28;19924;-74
2022/07/19 09:00:16;;;;;;;;;;;10.30;99.90;;;;;;5014196;28;19963;-74
2022/07/19 09:02:53;;;;;;;;;;;10.30;99.90;;;;;;5014299;28;19997;-74
2022/07/19 09:05:19;;;;;;;;;;;10.30;99.90;;;;;;5014330;28;19980;-75
2022/07/19 09:07:59;;;;;;;;;;;10.30;99.90;;;;;;5014759;28;20310;-74
2022/07/19 09:10:26;;;;;;;;;;;10.20;99.90;;;;;;5014550;28;19956;-74
2022/07/19 09:13:01;;;;;;;;;;;10.20;99.90;;;;;;5014131;28;19909;-74
2022/07/19 09:15:42;;;;;;;;;;;10.20;99.90;;;;;;5014575;28;19909;-75
2022/07/19 09:18:10;;;;;;;;;;;10.20;99.90;;;;;;5014416;28;19939;-75
2022/07/19 09:20:37;;;;;;;;;;;10.30;99.90;;;;;;5014421;28;19910;-75
2022/07/19 09:23:04;;;;;;;;;;;10.30;99.90;;;;;;5014148;28;19909;-75
2022/07/19 09:25:38;;;;;;;;;;;10.30;99.90;;;;;;5014276;28;19910;-74
2022/07/19 09:28:05;;;;;;;;;;;10.30;99.90;;;;;;5014092;28;19951;-75
2022/07/19 09:30:37;;;;;;;;;;;10.20;99.90;;;;;;5014099;28;19909;-74
2022/07/19 09:33:11;;;;;;;;;;;10.20;99.90;;;;;;4996511;28;19916;-74
2022/07/19 09:35:41;;;;;;;;;;;10.10;99.90;;;;;;5014094;28;19910;-75
2022/07/19 09:38:19;;;;;;;;;;;10.10;99.90;;;;;;5013476;28;20036;-74
2022/07/19 09:40:47;;;;;;;;;;;10.10;99.90;;;;;;5012162;28;19917;-73
2022/07/19 09:43:14;;;;;;;;;;;10.00;99.90;;;;;;5011826;28;19918;-75
2022/07/19 09:45:41;;;;;;;;;;;10.00;99.90;;;;;;5013767;28;20008;-75
2022/07/19 09:48:08;;;;;;;;;;;10.10;99.90;;;;;;5013803;28;19909;-74
2022/07/19 09:50:35;;;;;;;;;;;10.10;99.90;;;;;;5013222;28;20436;-74
2022/07/19 09:53:03;;;;;;;;;;;10.10;99.90;;;;;;5013539;28;19961;-73
2022/07/19 09:55:29;;;;;;;;;;;10.10;99.90;;;;;;5013679;28;19913;-74
2022/07/19 09:57:57;;;;;;;;;;;10.10;99.90;;;;;;5013417;28;20422;-74
2022/07/19 10:00:25;;;;;;;;;;;10.10;99.90;;;;;;5013210;28;20398;-74
2022/07/19 10:02:55;;;;;;;;;;;10.10;99.90;;;;;;5013438;28;19910;-74
2022/07/19 10:05:22;;;;;;;;;;;10.10;99.90;;;;;;5013388;28;19921;-75
2022/07/19 10:07:48;;;;;;;;;;;10.10;99.90;;;;;;5013551;28;19921;-75
2022/07/19 10:10:17;;;;;;;;;;;10.10;99.90;;;;;;5012897;28;20004;-74
2022/07/19 10:12:45;;;;;;;;;;;10.10;99.90;;;;;;5013254;28;19913;-74
2022/07/19 10:15:14;;;;;;;;;;;10.00;99.90;;;;;;5012670;28;19925;-74
2022/07/19 10:17:53;;;;;;;;;;;10.10;99.90;;;;;;4995837;28;20295;-74
2022/07/19 10:20:21;;;;;;;;;;;10.10;99.90;;;;;;5012952;28;20015;-75
2022/07/19 10:22:49;;;;;;;;;;;10.10;99.90;;;;;;5013407;28;19909;-74
2022/07/19 10:25:17;;;;;;;;;;;10.10;99.90;;;;;;5013250;28;19909;-74
2022/07/19 10:27:46;;;;;;;;;;;10.10;99.90;;;;;;5012342;28;19913;-74
2022/07/19 10:30:12;;;;;;;;;;;10.00;99.90;;;;;;5010671;28;19964;-75
2022/07/19 10:32:40;;;;;;;;;;;10.00;99.90;;;;;;5011093;28;19955;-74
2022/07/19 10:35:24;;;;;;;;;;;10.00;99.90;;;;;;5009982;28;19932;-73
2022/07/19 10:37:54;;;;;;;;;;;10.00;99.90;;;;;;4991327;28;19957;-73
2022/07/19 10:40:43;;;;;;;;;;;10.00;99.90;;;;;;4990892;28;19918;-73
2022/07/19 10:43:11;;;;;;;;;;;10.00;99.90;;;;;;4991200;28;19924;-73
2022/07/19 10:45:39;;;;;;;;;;;10.00;99.90;;;;;;4991342;28;19917;-72
2022/07/19 10:48:06;;;;;;;;;;;10.00;99.90;;;;;;4990917;28;19909;-73
2022/07/19 10:50:46;;;;;;;;;;;10.00;99.90;;;;;;4972979;28;19922;-73
2022/07/19 10:53:31;;;;;;;;;;;9.90;99.90;;;;;;4975605;28;19933;-73
2022/07/19 10:56:16;;;;;;;;;;;9.90;99.90;;;;;;4975821;28;19917;-73
2022/07/19 10:58:50;;;;;;;;;;;9.90;99.90;;;;;;4978323;28;19928;-73
2022/07/19 11:01:18;;;;;;;;;;;9.90;99.90;;;;;;4994364;28;20276;-73
2022/07/19 11:03:45;;;;;;;;;;;9.90;99.90;;;;;;4995057;28;20352;-73
2022/07/19 11:06:19;;;;;;;;;;;9.90;99.90;;;;;;4994892;28;19972;-73
2022/07/19 11:08:46;;;;;;;;;;;9.90;99.90;;;;;;4994355;28;19917;-73
2022/07/19 11:11:14;;;;;;;;;;;10.00;99.90;;;;;;4994649;28;19910;-74
2022/07/19 11:13:43;;;;;;;;;;;10.00;99.90;;;;;;4994654;28;19921;-74
2022/07/19 11:16:10;;;;;;;;;;;10.00;99.90;;;;;;4993904;28;20437;-73
2022/07/19 11:18:36;;;;;;;;;;;10.00;99.90;;;;;;4991670;28;19918;-73
2022/07/19 11:21:04;;;;;;;;;;;9.90;99.90;;;;;;4974938;28;19911;-73
2022/07/19 11:23:32;;;;;;;;;;;9.90;99.90;;;;;;4975563;28;19964;-73
2022/07/19 11:26:17;;;;;;;;;;;9.90;99.90;;;;;;4975340;28;19914;-73
2022/07/19 11:28:45;;;;;;;;;;;9.90;99.90;;;;;;4977630;28;20378;-73
2022/07/19 11:31:12;;;;;;;;;;;9.90;99.90;;;;;;4993318;28;19921;-74
2022/07/19 11:33:38;;;;;;;;;;;9.80;99.90;;;;;;4994488;28;19914;-74
2022/07/19 11:36:05;;;;;;;;;;;9.80;99.90;;;;;;4994699;28;20337;-73
2022/07/19 11:38:36;;;;;;;;;;;9.80;99.90;;;;;;4991991;28;19980;-73
2022/07/19 11:41:03;;;;;;;;;;;9.80;99.90;;;;;;4974600;28;20327;-75
2022/07/19 11:43:30;;;;;;;;;;;9.80;99.90;;;;;;4974980;28;20431;-74
2022/07/19 11:45:56;;;;;;;;;;;9.80;99.90;;;;;;4974423;28;19914;-74
2022/07/19 11:48:24;;;;;;;;;;;9.80;99.90;;;;;;4974346;28;20408;-74
2022/07/19 11:51:11;;;;;;;;;;;9.80;99.90;;;;;;4976028;28;19910;-74
2022/07/19 11:53:39;;;;;;;;;;;9.80;99.90;;;;;;4976840;28;19917;-74
2022/07/19 11:56:06;;;;;;;;;;;9.80;99.90;;;;;;4977264;28;20279;-73
2022/07/19 11:58:33;;;;;;;;;;;9.70;99.90;;;;;;4976036;28;20296;-73
2022/07/19 12:01:01;;;;;;;;;;;9.70;99.90;;;;;;4976158;28;20008;-73
2022/07/19 12:03:28;;;;;;;;;;;9.70;99.90;;;;;;4975654;28;19910;-73
2022/07/19 12:05:57;;;;;;;;;;;9.70;99.90;;;;;;4976399;28;19922;-73
2022/07/19 12:08:32;;;;;;;;;;;9.70;99.90;;;;;;4976119;28;20295;-74
2022/07/19 12:10:58;;;;;;;;;;;9.60;99.90;;;;;;4976466;28;19945;-73
2022/07/19 12:13:43;;;;;;;;;;;9.60;99.90;;;;;;4976343;28;20289;-73
2022/07/19 12:16:11;;;;;;;;;;;9.60;99.90;;;;;;4976107;28;19989;-73
2022/07/19 12:18:47;;;;;;;;;;;9.50;99.90;;;;;;4978574;28;19925;-74
2022/07/19 12:21:24;;;;;;;;;;;9.50;99.90;;;;;;4995553;28;19910;-74
2022/07/19 12:24:13;;;;;;;;;;;9.50;99.90;;;;;;4995829;28;19910;-73
2022/07/19 12:26:42;;;;;;;;;;;9.50;99.90;;;;;;4995722;28;20368;-74
2022/07/19 12:29:25;;;;;;;;;;;9.50;99.90;;;;;;4995030;28;19918;-73
2022/07/19 12:31:52;;;;;;;;;;;9.40;99.90;;;;;;4995114;28;20366;-73
2022/07/19 12:34:19;;;;;;;;;;;9.50;99.90;;;;;;4995802;28;19910;-73
2022/07/19 12:36:46;;;;;;;;;;;9.50;99.90;;;;;;4995462;28;19972;-73
2022/07/19 12:39:24;;;;;;;;;;;9.40;99.90;;;;;;4994865;28;20368;-73
2022/07/19 12:41:54;;;;;;;;;;;9.40;99.90;;;;;;4995203;28;19976;-73
2022/07/19 12:44:21;;;;;;;;;;;9.40;99.90;;;;;;4995643;28;20368;-74
2022/07/19 12:46:48;;;;;;;;;;;9.40;99.90;;;;;;4995003;28;19980;-73
2022/07/19 12:49:15;;;;;;;;;;;9.40;99.90;;;;;;4987218;28;19966;-73
2022/07/19 12:51:43;;;;;;;;;;;9.60;99.90;;;;;;4976012;28;20483;-73
2022/07/19 12:54:13;;;;;;;;;;;9.60;99.90;;;;;;4975825;28;19914;-73
2022/07/19 12:56:40;;;;;;;;;;;9.60;99.90;;;;;;4975658;28;19910;-73
2022/07/19 13:01:51;;;;;;;;;;;9.50;99.90;;;;;;4976302;28;19957;-73
2022/07/19 13:04:18;;;;;;;;;;;9.40;99.90;;;;;;4975549;28;19917;-73
2022/07/19 13:06:45;;;;;;;;;;;9.40;99.90;;;;;;4975839;28;19964;-74
2022/07/19 13:09:12;;;;;;;;;;;9.50;99.90;;;;;;4975623;28;19913;-73
2022/07/19 13:11:38;;;;;;;;;;;9.40;99.90;;;;;;4975496;28;19910;-73
2022/07/19 13:14:10;;;;;;;;;;;9.50;99.90;;;;;;4975515;28;19911;-73
2022/07/19 13:16:36;;;;;;;;;;;9.50;99.90;;;;;;4975529;28;19910;-73
2022/07/19 13:19:03;;;;;;;;;;;9.50;99.90;;;;;;4975335;28;19925;-73
2022/07/19 13:21:30;;;;;;;;;;;9.60;99.90;;;;;;4975521;28;20335;-72
2022/07/19 13:23:57;;;;;;;;;;;9.60;99.90;;;;;;4975556;28;19910;-73
2022/07/19 13:26:24;;;;;;;;;;;9.70;99.90;;;;;;4975297;28;19910;-73
2022/07/19 13:28:50;;;;;;;;;;;9.60;99.90;;;;;;4975406;28;19922;-73
2022/07/19 13:31:17;;;;;;;;;;;9.60;99.90;;;;;;4975456;28;19918;-73
2022/07/19 13:33:44;;;;;;;;;;;9.60;99.90;;;;;;4975307;28;19910;-72
2022/07/19 13:36:11;;;;;;;;;;;9.50;99.90;;;;;;4975198;28;20372;-72
2022/07/19 13:38:40;;;;;;;;;;;9.50;99.90;;;;;;4975271;28;19922;-72
2022/07/19 13:41:08;;;;;;;;;;;9.40;99.90;;;;;;4974817;28;19917;-72
2022/07/19 13:43:34;;;;;;;;;;;9.40;99.90;;;;;;4973958;28;20280;-73
2022/07/19 13:46:01;;;;;;;;;;;9.40;99.90;;;;;;4975306;28;19996;-73
2022/07/19 13:48:28;;;;;;;;;;;9.40;99.90;;;;;;4975427;28;19909;-73
2022/07/19 13:50:54;;;;;;;;;;;9.40;99.90;;;;;;4976351;28;20382;-74
2022/07/19 13:53:21;;;;;;;;;;;9.30;99.90;;;;;;4975284;28;19917;-74
2022/07/19 13:55:48;;;;;;;;;;;9.30;99.90;;;;;;4975108;28;19957;-75
2022/07/19 13:58:15;;;;;;;;;;;9.30;99.90;;;;;;4974909;28;20284;-75
2022/07/19 14:00:45;;;;;;;;;;;9.30;99.90;;;;;;4975001;28;19910;-75
2022/07/19 14:03:14;;;;;;;;;;;9.40;99.90;;;;;;4974852;28;20005;-75
2022/07/19 14:05:41;;;;;;;;;;;9.40;99.90;;;;;;4974717;28;19922;-74
2022/07/19 14:08:08;;;;;;;;;;;9.40;99.90;;;;;;4974977;28;20265;-74
2022/07/19 14:10:35;;;;;;;;;;;9.60;99.90;;;;;;4974909;28;19945;-73
2022/07/19 14:13:01;;;;;;;;;;;9.50;99.90;;;;;;4974648;28;19954;-72
2022/07/19 14:15:28;;;;;;;;;;;9.50;99.90;;;;;;4974858;28;20327;-72
2022/07/19 14:17:56;;;;;;;;;;;9.50;99.90;;;;;;4974710;28;19968;-72
2022/07/19 14:20:23;;;;;;;;;;;9.50;99.90;;;;;;4974763;28;19917;-72
2022/07/19 14:22:50;;;;;;;;;;;9.50;99.90;;;;;;4974684;28;19921;-75
2022/07/19 14:25:17;;;;;;;;;;;9.50;99.90;;;;;;4975495;28;19910;-75
2022/07/19 14:27:44;;;;;;;;;;;9.50;99.90;;;;;;4980896;28;19998;-74
2022/07/19 14:30:11;;;;;;;;;;;9.60;99.90;;;;;;4980979;28;19953;-75
2022/07/19 14:32:37;;;;;;;;;;;9.60;99.90;;;;;;4980866;28;20258;-74